Brewton, AL

5:12 PM CST on November 28, 2014 (GMT -0600)
Sellersville | Change Station
CLOSE
Current Station
Personal Weather Station
Location: Jay, FL
Elevation: 240 ft
Nearby Weather Stations

Elev 240 ft 31.00 °N, 86.94 °W | Updated 2 seconds ago

Clear
Clear
48.0 °F
Feels Like 48 °F
N
0.0
Wind Variable Wind from North
Gusts 0.0 mph

Today
High -- | Low -- °F
--% Chance of Precip.
Yesterday
High -- | Low -- °F
Precip. -- in
6:26 AM 4:45 PM
Waxing Crescent, 45% visible
Pressure 30.30 in
Visibility 10.0 miles
Clouds Clear
Windchill 48 °F
Dew Point 39 °F
Humidity 71%
Rainfall 0.00 in
Snow Depth Not available.
UV 0 out of 12
Pollen 2.10 out of 12
Air Quality Not available.
Flu Activity Not available.
METAR KGZH 282253Z AUTO 00000KT 10SM CLR 10/M02 A3030 RMK AO2 SLP260 T01001017

More Conditions Fewer Conditions

Pressure 30.30 in
Visibility 10.0 miles
Clouds Clear
Windchill 48 °F
Dew Point 39 °F
Humidity 71%
Rainfall 0.00 in
Snow Depth Not available.
UV 0 out of 12
Pollen 2.10 out of 12
Air Quality Not available.
Flu Activity Not available.
METAR KGZH 282253Z AUTO 00000KT 10SM CLR 10/M02 A3030 RMK AO2 SLP260 T01001017

More Conditions Fewer Conditions

10-Day Weather Forecast

Almanac

Astronomy

Nov. 28, 2014 Rise Set
Actual Time
Civil Twilight
Nautical Twilight
Astronomical Twilight
Moon
Length of Visible Light
Length of Day
Tomorrow will be .
, % of the Moon is Illuminated

Today's Extremes

State Highs State Lows

Community

WunderPhotos

Upload Photos

1,774,331 photos uploaded!

WunderBlogs® & News

Nearby

Air Quality

  Air Quality AQ Index Pollutant
Not available.

Snow Depth

Station Depth Elevation

Earthquake Activity

City Distance Mag. Time & Date
Minimum magnitude displayed is 2.5.

Coastal Water Temperatures

Place Temperature

Nearby Weather Stations